sensor_id;sensor_type;location;lat;lon;timestamp;P1;durP1;ratioP1;P2;durP2;ratioP2
3733;SDS011;1882;52.256;8.874;2022-10-31T00:01:01;34.20;;;18.83;;
3733;SDS011;1882;52.256;8.874;2022-10-31T00:03:30;31.53;;;16.50;;
3733;SDS011;1882;52.256;8.874;2022-10-31T00:05:56;36.23;;;16.27;;
3733;SDS011;1882;52.256;8.874;2022-10-31T00:08:23;47.43;;;21.63;;
3733;SDS011;1882;52.256;8.874;2022-10-31T00:10:49;30.63;;;15.60;;
3733;SDS011;1882;52.256;8.874;2022-10-31T00:13:16;48.43;;;22.23;;
3733;SDS011;1882;52.256;8.874;2022-10-31T00:15:43;33.47;;;17.00;;
3733;SDS011;1882;52.256;8.874;2022-10-31T00:18:10;34.43;;;15.47;;
3733;SDS011;1882;52.256;8.874;2022-10-31T00:20:37;32.80;;;17.57;;
3733;SDS011;1882;52.256;8.874;2022-10-31T00:23:04;40.63;;;17.33;;
3733;SDS011;1882;52.256;8.874;2022-10-31T00:25:36;37.23;;;19.60;;
3733;SDS011;1882;52.256;8.874;2022-10-31T00:28:06;36.17;;;18.70;;
3733;SDS011;1882;52.256;8.874;2022-10-31T00:30:34;39.27;;;18.30;;
3733;SDS011;1882;52.256;8.874;2022-10-31T00:33:02;26.90;;;16.00;;
3733;SDS011;1882;52.256;8.874;2022-10-31T00:35:30;31.33;;;16.17;;
3733;SDS011;1882;52.256;8.874;2022-10-31T00:37:57;42.80;;;16.80;;
3733;SDS011;1882;52.256;8.874;2022-10-31T00:40:24;33.20;;;16.77;;
3733;SDS011;1882;52.256;8.874;2022-10-31T00:42:51;34.90;;;19.70;;
3733;SDS011;1882;52.256;8.874;2022-10-31T00:45:17;34.70;;;18.33;;
3733;SDS011;1882;52.256;8.874;2022-10-31T00:47:44;32.60;;;17.37;;
3733;SDS011;1882;52.256;8.874;2022-10-31T00:50:10;33.20;;;17.53;;
3733;SDS011;1882;52.256;8.874;2022-10-31T00:52:37;36.27;;;17.87;;
3733;SDS011;1882;52.256;8.874;2022-10-31T00:55:04;37.53;;;19.10;;
3733;SDS011;1882;52.256;8.874;2022-10-31T00:57:31;34.63;;;17.67;;
3733;SDS011;1882;52.256;8.874;2022-10-31T00:59:57;33.30;;;17.53;;
3733;SDS011;1882;52.256;8.874;2022-10-31T01:02:24;39.80;;;19.27;;
3733;SDS011;1882;52.256;8.874;2022-10-31T01:04:51;41.70;;;19.30;;
3733;SDS011;1882;52.256;8.874;2022-10-31T01:07:22;36.97;;;19.90;;
3733;SDS011;1882;52.256;8.874;2022-10-31T01:09:48;40.10;;;19.87;;
3733;SDS011;1882;52.256;8.874;2022-10-31T01:12:15;45.50;;;22.10;;
3733;SDS011;1882;52.256;8.874;2022-10-31T01:14:42;48.27;;;21.20;;
3733;SDS011;1882;52.256;8.874;2022-10-31T01:17:11;49.97;;;22.90;;
3733;SDS011;1882;52.256;8.874;2022-10-31T01:19:38;49.10;;;22.50;;
3733;SDS011;1882;52.256;8.874;2022-10-31T01:22:05;48.37;;;23.70;;
3733;SDS011;1882;52.256;8.874;2022-10-31T01:24:32;45.13;;;22.93;;
3733;SDS011;1882;52.256;8.874;2022-10-31T01:27:00;49.00;;;23.00;;
3733;SDS011;1882;52.256;8.874;2022-10-31T01:29:30;45.37;;;22.57;;
3733;SDS011;1882;52.256;8.874;2022-10-31T01:31:57;45.80;;;22.50;;
3733;SDS011;1882;52.256;8.874;2022-10-31T01:34:24;47.43;;;21.90;;
3733;SDS011;1882;52.256;8.874;2022-10-31T01:36:50;41.13;;;23.20;;
3733;SDS011;1882;52.256;8.874;2022-10-31T01:39:18;52.10;;;22.60;;
3733;SDS011;1882;52.256;8.874;2022-10-31T01:41:46;39.07;;;21.67;;
3733;SDS011;1882;52.256;8.874;2022-10-31T01:49:19;49.87;;;22.97;;
3733;SDS011;1882;52.256;8.874;2022-10-31T01:52:00;44.90;;;24.00;;
3733;SDS011;1882;52.256;8.874;2022-10-31T01:54:30;48.33;;;24.33;;
3733;SDS011;1882;52.256;8.874;2022-10-31T01:57:04;45.80;;;23.77;;
3733;SDS011;1882;52.256;8.874;2022-10-31T01:59:32;48.97;;;25.33;;
3733;SDS011;1882;52.256;8.874;2022-10-31T02:02:01;48.17;;;24.87;;
3733;SDS011;1882;52.256;8.874;2022-10-31T02:04:28;46.37;;;24.67;;
3733;SDS011;1882;52.256;8.874;2022-10-31T02:07:07;47.50;;;25.53;;
3733;SDS011;1882;52.256;8.874;2022-10-31T02:09:37;49.77;;;26.00;;
3733;SDS011;1882;52.256;8.874;2022-10-31T02:12:04;61.33;;;26.17;;
3733;SDS011;1882;52.256;8.874;2022-10-31T02:14:31;60.90;;;27.90;;
3733;SDS011;1882;52.256;8.874;2022-10-31T02:17:01;50.57;;;26.67;;
3733;SDS011;1882;52.256;8.874;2022-10-31T02:22:09;72.80;;;29.70;;
3733;SDS011;1882;52.256;8.874;2022-10-31T02:30:34;62.63;;;28.30;;
3733;SDS011;1882;52.256;8.874;2022-10-31T02:36:04;61.03;;;29.67;;
3733;SDS011;1882;52.256;8.874;2022-10-31T02:41:43;61.63;;;29.77;;
3733;SDS011;1882;52.256;8.874;2022-10-31T02:47:01;63.83;;;29.73;;
3733;SDS011;1882;52.256;8.874;2022-10-31T02:49:40;64.10;;;30.40;;
3733;SDS011;1882;52.256;8.874;2022-10-31T02:52:29;65.77;;;31.47;;
3733;SDS011;1882;52.256;8.874;2022-10-31T02:58:04;64.00;;;31.40;;
3733;SDS011;1882;52.256;8.874;2022-10-31T03:00:56;69.57;;;32.30;;
3733;SDS011;1882;52.256;8.874;2022-10-31T03:03:25;56.40;;;29.60;;
3733;SDS011;1882;52.256;8.874;2022-10-31T03:08:35;63.60;;;29.47;;
3733;SDS011;1882;52.256;8.874;2022-10-31T03:11:08;60.07;;;30.43;;
3733;SDS011;1882;52.256;8.874;2022-10-31T03:13:41;61.90;;;29.37;;
3733;SDS011;1882;52.256;8.874;2022-10-31T03:16:17;58.43;;;29.60;;
3733;SDS011;1882;52.256;8.874;2022-10-31T03:19:06;62.67;;;30.27;;
3733;SDS011;1882;52.256;8.874;2022-10-31T03:21:46;59.43;;;29.00;;
3733;SDS011;1882;52.256;8.874;2022-10-31T03:24:15;65.50;;;31.00;;
3733;SDS011;1882;52.256;8.874;2022-10-31T03:26:43;59.30;;;31.20;;
3733;SDS011;1882;52.256;8.874;2022-10-31T03:29:14;57.57;;;30.80;;
3733;SDS011;1882;52.256;8.874;2022-10-31T03:31:46;73.47;;;31.37;;
3733;SDS011;1882;52.256;8.874;2022-10-31T03:34:21;67.57;;;30.00;;
3733;SDS011;1882;52.256;8.874;2022-10-31T03:36:52;67.20;;;32.00;;
3733;SDS011;1882;52.256;8.874;2022-10-31T03:39:26;67.20;;;31.40;;
3733;SDS011;1882;52.256;8.874;2022-10-31T03:41:54;61.87;;;30.73;;
3733;SDS011;1882;52.256;8.874;2022-10-31T03:44:32;64.40;;;30.10;;
3733;SDS011;1882;52.256;8.874;2022-10-31T03:47:01;70.60;;;31.97;;
3733;SDS011;1882;52.256;8.874;2022-10-31T03:49:29;68.37;;;31.63;;
3733;SDS011;1882;52.256;8.874;2022-10-31T03:57:08;60.80;;;32.27;;
3733;SDS011;1882;52.256;8.874;2022-10-31T03:59:36;54.63;;;28.10;;
3733;SDS011;1882;52.256;8.874;2022-10-31T04:02:10;54.73;;;29.77;;
3733;SDS011;1882;52.256;8.874;2022-10-31T04:04:44;69.37;;;31.80;;
3733;SDS011;1882;52.256;8.874;2022-10-31T04:07:12;62.13;;;31.47;;
3733;SDS011;1882;52.256;8.874;2022-10-31T04:09:40;60.10;;;31.87;;
3733;SDS011;1882;52.256;8.874;2022-10-31T04:12:13;74.93;;;33.80;;
3733;SDS011;1882;52.256;8.874;2022-10-31T04:14:59;72.20;;;33.37;;
3733;SDS011;1882;52.256;8.874;2022-10-31T04:17:32;88.80;;;35.67;;
3733;SDS011;1882;52.256;8.874;2022-10-31T04:20:03;83.53;;;34.40;;
3733;SDS011;1882;52.256;8.874;2022-10-31T04:22:30;80.53;;;35.77;;
3733;SDS011;1882;52.256;8.874;2022-10-31T04:24:58;86.47;;;38.30;;
3733;SDS011;1882;52.256;8.874;2022-10-31T04:27:25;87.23;;;36.30;;
3733;SDS011;1882;52.256;8.874;2022-10-31T04:29:54;73.50;;;36.37;;
3733;SDS011;1882;52.256;8.874;2022-10-31T04:32:23;88.37;;;37.00;;
3733;SDS011;1882;52.256;8.874;2022-10-31T04:34:51;88.57;;;39.53;;
3733;SDS011;1882;52.256;8.874;2022-10-31T04:37:18;92.50;;;39.10;;
3733;SDS011;1882;52.256;8.874;2022-10-31T04:39:46;113.70;;;43.40;;
3733;SDS011;1882;52.256;8.874;2022-10-31T04:42:44;92.57;;;41.47;;
3733;SDS011;1882;52.256;8.874;2022-10-31T04:45:10;106.23;;;44.90;;
3733;SDS011;1882;52.256;8.874;2022-10-31T04:47:48;106.33;;;43.50;;
3733;SDS011;1882;52.256;8.874;2022-10-31T04:50:15;107.37;;;46.33;;
3733;SDS011;1882;52.256;8.874;2022-10-31T04:52:44;118.33;;;47.20;;
3733;SDS011;1882;52.256;8.874;2022-10-31T04:55:14;111.70;;;48.20;;
3733;SDS011;1882;52.256;8.874;2022-10-31T04:58:10;102.00;;;45.50;;
3733;SDS011;1882;52.256;8.874;2022-10-31T05:00:37;94.57;;;44.60;;
3733;SDS011;1882;52.256;8.874;2022-10-31T05:03:03;121.60;;;49.80;;
3733;SDS011;1882;52.256;8.874;2022-10-31T05:05:32;108.60;;;46.47;;
3733;SDS011;1882;52.256;8.874;2022-10-31T05:08:02;122.27;;;47.40;;
3733;SDS011;1882;52.256;8.874;2022-10-31T05:10:30;115.50;;;48.27;;
3733;SDS011;1882;52.256;8.874;2022-10-31T05:13:00;122.80;;;45.80;;
3733;SDS011;1882;52.256;8.874;2022-10-31T05:16:07;107.37;;;43.83;;
3733;SDS011;1882;52.256;8.874;2022-10-31T05:18:52;105.73;;;44.17;;
3733;SDS011;1882;52.256;8.874;2022-10-31T05:21:28;118.97;;;45.17;;
3733;SDS011;1882;52.256;8.874;2022-10-31T05:24:01;110.60;;;43.57;;
3733;SDS011;1882;52.256;8.874;2022-10-31T05:26:28;105.60;;;42.70;;
3733;SDS011;1882;52.256;8.874;2022-10-31T05:28:55;124.27;;;46.27;;
3733;SDS011;1882;52.256;8.874;2022-10-31T05:31:22;120.43;;;44.17;;
3733;SDS011;1882;52.256;8.874;2022-10-31T05:33:50;106.80;;;43.80;;
3733;SDS011;1882;52.256;8.874;2022-10-31T05:36:35;112.57;;;43.03;;
3733;SDS011;1882;52.256;8.874;2022-10-31T05:39:09;116.17;;;44.60;;
3733;SDS011;1882;52.256;8.874;2022-10-31T05:41:41;95.07;;;41.53;;
3733;SDS011;1882;52.256;8.874;2022-10-31T05:44:15;101.87;;;42.07;;
3733;SDS011;1882;52.256;8.874;2022-10-31T05:47:08;112.93;;;41.60;;
3733;SDS011;1882;52.256;8.874;2022-10-31T05:49:53;111.23;;;43.60;;
3733;SDS011;1882;52.256;8.874;2022-10-31T05:52:38;101.30;;;42.17;;
3733;SDS011;1882;52.256;8.874;2022-10-31T05:55:17;106.00;;;41.13;;
3733;SDS011;1882;52.256;8.874;2022-10-31T05:58:00;110.63;;;43.37;;
3733;SDS011;1882;52.256;8.874;2022-10-31T06:00:28;111.37;;;42.40;;
3733;SDS011;1882;52.256;8.874;2022-10-31T06:03:04;122.83;;;43.87;;
3733;SDS011;1882;52.256;8.874;2022-10-31T06:05:40;124.13;;;43.90;;
3733;SDS011;1882;52.256;8.874;2022-10-31T06:08:07;106.17;;;41.23;;
3733;SDS011;1882;52.256;8.874;2022-10-31T06:10:34;93.03;;;38.03;;
3733;SDS011;1882;52.256;8.874;2022-10-31T06:13:01;105.30;;;38.80;;
3733;SDS011;1882;52.256;8.874;2022-10-31T06:15:35;117.83;;;38.53;;
3733;SDS011;1882;52.256;8.874;2022-10-31T06:18:05;94.20;;;38.10;;
3733;SDS011;1882;52.256;8.874;2022-10-31T06:20:35;103.27;;;38.50;;
3733;SDS011;1882;52.256;8.874;2022-10-31T06:23:03;105.23;;;40.17;;
3733;SDS011;1882;52.256;8.874;2022-10-31T06:25:32;92.80;;;39.80;;
3733;SDS011;1882;52.256;8.874;2022-10-31T06:27:59;105.63;;;40.17;;
3733;SDS011;1882;52.256;8.874;2022-10-31T06:30:50;98.53;;;38.03;;
3733;SDS011;1882;52.256;8.874;2022-10-31T06:33:17;113.10;;;38.93;;
3733;SDS011;1882;52.256;8.874;2022-10-31T06:35:54;106.40;;;39.87;;
3733;SDS011;1882;52.256;8.874;2022-10-31T06:38:21;115.27;;;37.83;;
3733;SDS011;1882;52.256;8.874;2022-10-31T06:40:47;101.37;;;39.67;;
3733;SDS011;1882;52.256;8.874;2022-10-31T06:43:16;99.80;;;39.67;;
3733;SDS011;1882;52.256;8.874;2022-10-31T06:45:45;103.67;;;41.00;;
3733;SDS011;1882;52.256;8.874;2022-10-31T06:48:21;103.57;;;41.60;;
3733;SDS011;1882;52.256;8.874;2022-10-31T06:51:12;100.10;;;39.40;;
3733;SDS011;1882;52.256;8.874;2022-10-31T06:53:38;100.07;;;39.40;;
3733;SDS011;1882;52.256;8.874;2022-10-31T06:56:07;109.67;;;43.07;;
3733;SDS011;1882;52.256;8.874;2022-10-31T06:58:39;104.70;;;40.00;;
3733;SDS011;1882;52.256;8.874;2022-10-31T07:01:07;138.87;;;43.20;;
3733;SDS011;1882;52.256;8.874;2022-10-31T07:03:34;120.37;;;41.20;;
3733;SDS011;1882;52.256;8.874;2022-10-31T07:06:01;112.80;;;42.37;;
3733;SDS011;1882;52.256;8.874;2022-10-31T07:08:35;119.80;;;42.33;;
3733;SDS011;1882;52.256;8.874;2022-10-31T07:11:01;110.00;;;43.50;;
3733;SDS011;1882;52.256;8.874;2022-10-31T07:13:29;123.53;;;43.50;;
3733;SDS011;1882;52.256;8.874;2022-10-31T07:16:03;124.10;;;43.73;;
3733;SDS011;1882;52.256;8.874;2022-10-31T07:18:32;110.57;;;43.37;;
3733;SDS011;1882;52.256;8.874;2022-10-31T07:20:59;109.33;;;42.77;;
3733;SDS011;1882;52.256;8.874;2022-10-31T07:23:26;124.40;;;42.17;;
3733;SDS011;1882;52.256;8.874;2022-10-31T07:26:22;120.90;;;42.13;;
3733;SDS011;1882;52.256;8.874;2022-10-31T07:28:48;113.40;;;42.20;;
3733;SDS011;1882;52.256;8.874;2022-10-31T07:31:19;104.80;;;40.80;;
3733;SDS011;1882;52.256;8.874;2022-10-31T07:33:52;112.53;;;41.10;;
3733;SDS011;1882;52.256;8.874;2022-10-31T07:36:48;116.27;;;42.40;;
3733;SDS011;1882;52.256;8.874;2022-10-31T07:39:19;96.10;;;37.87;;
3733;SDS011;1882;52.256;8.874;2022-10-31T07:41:45;106.93;;;39.50;;
3733;SDS011;1882;52.256;8.874;2022-10-31T07:44:16;95.37;;;38.03;;
3733;SDS011;1882;52.256;8.874;2022-10-31T07:46:52;92.30;;;38.40;;
3733;SDS011;1882;52.256;8.874;2022-10-31T07:49:24;96.97;;;39.93;;
3733;SDS011;1882;52.256;8.874;2022-10-31T07:52:10;105.10;;;39.93;;
3733;SDS011;1882;52.256;8.874;2022-10-31T07:54:56;99.40;;;38.90;;
3733;SDS011;1882;52.256;8.874;2022-10-31T07:57:22;95.27;;;37.60;;
3733;SDS011;1882;52.256;8.874;2022-10-31T07:59:51;88.60;;;36.47;;
3733;SDS011;1882;52.256;8.874;2022-10-31T08:02:18;92.27;;;38.23;;
3733;SDS011;1882;52.256;8.874;2022-10-31T08:04:50;88.53;;;35.83;;
3733;SDS011;1882;52.256;8.874;2022-10-31T08:07:26;87.20;;;35.87;;
3733;SDS011;1882;52.256;8.874;2022-10-31T08:09:59;78.20;;;36.13;;
3733;SDS011;1882;52.256;8.874;2022-10-31T08:12:29;90.80;;;35.30;;
3733;SDS011;1882;52.256;8.874;2022-10-31T08:14:56;78.07;;;32.73;;
3733;SDS011;1882;52.256;8.874;2022-10-31T08:17:23;72.50;;;32.80;;
3733;SDS011;1882;52.256;8.874;2022-10-31T08:19:53;70.73;;;33.70;;
3733;SDS011;1882;52.256;8.874;2022-10-31T08:22:25;63.83;;;29.97;;
3733;SDS011;1882;52.256;8.874;2022-10-31T08:24:53;70.60;;;32.77;;
3733;SDS011;1882;52.256;8.874;2022-10-31T08:27:23;71.37;;;31.17;;
3733;SDS011;1882;52.256;8.874;2022-10-31T08:29:50;65.60;;;30.47;;
3733;SDS011;1882;52.256;8.874;2022-10-31T08:32:17;60.03;;;29.50;;
3733;SDS011;1882;52.256;8.874;2022-10-31T08:34:55;62.37;;;29.60;;
3733;SDS011;1882;52.256;8.874;2022-10-31T08:37:57;54.53;;;28.03;;
3733;SDS011;1882;52.256;8.874;2022-10-31T08:40:26;62.17;;;29.53;;
3733;SDS011;1882;52.256;8.874;2022-10-31T08:45:24;55.67;;;27.10;;
3733;SDS011;1882;52.256;8.874;2022-10-31T08:47:50;57.23;;;27.00;;
3733;SDS011;1882;52.256;8.874;2022-10-31T08:50:21;48.87;;;25.00;;
3733;SDS011;1882;52.256;8.874;2022-10-31T08:52:47;48.67;;;25.43;;
3733;SDS011;1882;52.256;8.874;2022-10-31T08:55:33;47.43;;;26.00;;
3733;SDS011;1882;52.256;8.874;2022-10-31T08:58:04;50.90;;;26.30;;
3733;SDS011;1882;52.256;8.874;2022-10-31T09:00:42;49.40;;;25.63;;
3733;SDS011;1882;52.256;8.874;2022-10-31T09:03:21;56.10;;;26.90;;
3733;SDS011;1882;52.256;8.874;2022-10-31T09:05:49;47.33;;;24.50;;
3733;SDS011;1882;52.256;8.874;2022-10-31T09:08:16;49.37;;;25.37;;
3733;SDS011;1882;52.256;8.874;2022-10-31T09:10:45;47.70;;;25.03;;
3733;SDS011;1882;52.256;8.874;2022-10-31T09:13:16;39.57;;;20.83;;
3733;SDS011;1882;52.256;8.874;2022-10-31T09:16:07;45.43;;;23.83;;
3733;SDS011;1882;52.256;8.874;2022-10-31T09:18:34;44.60;;;22.80;;
3733;SDS011;1882;52.256;8.874;2022-10-31T09:21:15;43.83;;;22.60;;
3733;SDS011;1882;52.256;8.874;2022-10-31T09:23:42;44.33;;;23.40;;
3733;SDS011;1882;52.256;8.874;2022-10-31T09:26:09;43.67;;;23.30;;
3733;SDS011;1882;52.256;8.874;2022-10-31T09:28:42;44.60;;;23.17;;
3733;SDS011;1882;52.256;8.874;2022-10-31T09:31:12;40.50;;;21.87;;
3733;SDS011;1882;52.256;8.874;2022-10-31T09:33:45;43.23;;;21.90;;
3733;SDS011;1882;52.256;8.874;2022-10-31T09:36:41;40.67;;;21.17;;
3733;SDS011;1882;52.256;8.874;2022-10-31T09:39:17;41.10;;;21.10;;
3733;SDS011;1882;52.256;8.874;2022-10-31T09:50:29;38.80;;;20.13;;
3733;SDS011;1882;52.256;8.874;2022-10-31T09:56:10;40.53;;;19.40;;
3733;SDS011;1882;52.256;8.874;2022-10-31T09:58:53;44.03;;;19.23;;
3733;SDS011;1882;52.256;8.874;2022-10-31T10:03:59;33.90;;;19.07;;
3733;SDS011;1882;52.256;8.874;2022-10-31T10:06:51;34.13;;;18.20;;
3733;SDS011;1882;52.256;8.874;2022-10-31T10:09:39;41.83;;;19.97;;
3733;SDS011;1882;52.256;8.874;2022-10-31T10:20:34;33.30;;;18.80;;
3733;SDS011;1882;52.256;8.874;2022-10-31T10:23:42;36.10;;;19.20;;
3733;SDS011;1882;52.256;8.874;2022-10-31T10:26:21;35.10;;;19.90;;
3733;SDS011;1882;52.256;8.874;2022-10-31T10:28:57;36.20;;;20.43;;
3733;SDS011;1882;52.256;8.874;2022-10-31T10:31:32;42.93;;;20.70;;
3733;SDS011;1882;52.256;8.874;2022-10-31T10:34:25;35.83;;;19.43;;
3733;SDS011;1882;52.256;8.874;2022-10-31T10:40:06;35.07;;;19.50;;
3733;SDS011;1882;52.256;8.874;2022-10-31T10:42:37;39.27;;;19.63;;
3733;SDS011;1882;52.256;8.874;2022-10-31T10:45:23;31.60;;;17.67;;
3733;SDS011;1882;52.256;8.874;2022-10-31T10:50:46;30.20;;;16.73;;
3733;SDS011;1882;52.256;8.874;2022-10-31T10:53:30;33.87;;;17.03;;
3733;SDS011;1882;52.256;8.874;2022-10-31T10:56:25;34.43;;;15.73;;
3733;SDS011;1882;52.256;8.874;2022-10-31T10:58:59;27.23;;;14.87;;
3733;SDS011;1882;52.256;8.874;2022-10-31T11:01:26;36.50;;;17.37;;
3733;SDS011;1882;52.256;8.874;2022-10-31T11:03:53;34.40;;;16.60;;
3733;SDS011;1882;52.256;8.874;2022-10-31T11:06:21;33.37;;;17.20;;
3733;SDS011;1882;52.256;8.874;2022-10-31T11:08:52;33.47;;;17.13;;
3733;SDS011;1882;52.256;8.874;2022-10-31T11:11:22;30.77;;;17.20;;
3733;SDS011;1882;52.256;8.874;2022-10-31T11:13:57;31.13;;;15.80;;
3733;SDS011;1882;52.256;8.874;2022-10-31T11:19:04;33.77;;;17.70;;
3733;SDS011;1882;52.256;8.874;2022-10-31T11:21:36;31.10;;;17.23;;
3733;SDS011;1882;52.256;8.874;2022-10-31T11:26:35;31.73;;;16.43;;
3733;SDS011;1882;52.256;8.874;2022-10-31T11:31:59;34.83;;;17.30;;
3733;SDS011;1882;52.256;8.874;2022-10-31T11:34:34;26.23;;;16.00;;
3733;SDS011;1882;52.256;8.874;2022-10-31T11:37:12;33.63;;;14.83;;
3733;SDS011;1882;52.256;8.874;2022-10-31T11:39:41;27.83;;;14.67;;
3733;SDS011;1882;52.256;8.874;2022-10-31T11:42:10;30.13;;;14.67;;
3733;SDS011;1882;52.256;8.874;2022-10-31T11:44:40;28.17;;;13.57;;
3733;SDS011;1882;52.256;8.874;2022-10-31T11:47:15;25.57;;;13.00;;
3733;SDS011;1882;52.256;8.874;2022-10-31T11:49:46;30.20;;;13.80;;
3733;SDS011;1882;52.256;8.874;2022-10-31T11:52:21;26.73;;;13.10;;
3733;SDS011;1882;52.256;8.874;2022-10-31T11:54:52;27.10;;;14.37;;
3733;SDS011;1882;52.256;8.874;2022-10-31T11:59:52;24.30;;;10.67;;
3733;SDS011;1882;52.256;8.874;2022-10-31T12:02:22;20.67;;;9.50;;
3733;SDS011;1882;52.256;8.874;2022-10-31T12:05:00;19.33;;;9.63;;
3733;SDS011;1882;52.256;8.874;2022-10-31T12:07:30;19.47;;;10.13;;
3733;SDS011;1882;52.256;8.874;2022-10-31T12:09:57;21.10;;;9.53;;
3733;SDS011;1882;52.256;8.874;2022-10-31T12:20:23;18.37;;;8.47;;
3733;SDS011;1882;52.256;8.874;2022-10-31T12:31:46;12.70;;;7.43;;
3733;SDS011;1882;52.256;8.874;2022-10-31T12:43:10;22.40;;;11.03;;
3733;SDS011;1882;52.256;8.874;2022-10-31T12:45:52;31.30;;;11.77;;
3733;SDS011;1882;52.256;8.874;2022-10-31T12:51:25;24.67;;;11.20;;
3733;SDS011;1882;52.256;8.874;2022-10-31T13:07:35;23.83;;;10.60;;
3733;SDS011;1882;52.256;8.874;2022-10-31T13:10:13;17.00;;;9.20;;
3733;SDS011;1882;52.256;8.874;2022-10-31T13:12:43;20.20;;;9.70;;
3733;SDS011;1882;52.256;8.874;2022-10-31T13:17:46;19.33;;;9.20;;
3733;SDS011;1882;52.256;8.874;2022-10-31T13:20:21;14.33;;;8.47;;
3733;SDS011;1882;52.256;8.874;2022-10-31T13:22:55;17.57;;;9.60;;
3733;SDS011;1882;52.256;8.874;2022-10-31T13:25:49;15.93;;;8.60;;
3733;SDS011;1882;52.256;8.874;2022-10-31T13:30:50;15.53;;;8.60;;
3733;SDS011;1882;52.256;8.874;2022-10-31T13:33:52;17.30;;;9.47;;
3733;SDS011;1882;52.256;8.874;2022-10-31T13:44:51;16.53;;;7.47;;
3733;SDS011;1882;52.256;8.874;2022-10-31T13:55:48;17.73;;;7.93;;
3733;SDS011;1882;52.256;8.874;2022-10-31T13:58:35;15.00;;;7.60;;
3733;SDS011;1882;52.256;8.874;2022-10-31T14:01:20;15.60;;;8.13;;
3733;SDS011;1882;52.256;8.874;2022-10-31T14:06:53;19.43;;;8.53;;
3733;SDS011;1882;52.256;8.874;2022-10-31T14:12:13;16.53;;;9.20;;
3733;SDS011;1882;52.256;8.874;2022-10-31T14:14:49;22.80;;;10.77;;
3733;SDS011;1882;52.256;8.874;2022-10-31T14:17:21;23.10;;;11.27;;
3733;SDS011;1882;52.256;8.874;2022-10-31T14:20:00;22.87;;;11.10;;
3733;SDS011;1882;52.256;8.874;2022-10-31T14:22:36;22.80;;;11.13;;
3733;SDS011;1882;52.256;8.874;2022-10-31T14:28:21;23.10;;;11.37;;
3733;SDS011;1882;52.256;8.874;2022-10-31T14:30:58;27.30;;;10.40;;
3733;SDS011;1882;52.256;8.874;2022-10-31T14:33:26;18.60;;;11.47;;
3733;SDS011;1882;52.256;8.874;2022-10-31T14:52:27;27.43;;;11.07;;
3733;SDS011;1882;52.256;8.874;2022-10-31T14:54:54;17.37;;;10.33;;
3733;SDS011;1882;52.256;8.874;2022-10-31T14:57:30;31.90;;;12.20;;
3733;SDS011;1882;52.256;8.874;2022-10-31T15:00:03;24.30;;;11.80;;
3733;SDS011;1882;52.256;8.874;2022-10-31T15:02:33;25.13;;;11.80;;
3733;SDS011;1882;52.256;8.874;2022-10-31T15:05:09;22.23;;;9.80;;
3733;SDS011;1882;52.256;8.874;2022-10-31T15:07:47;21.10;;;10.60;;
3733;SDS011;1882;52.256;8.874;2022-10-31T15:12:47;24.87;;;11.00;;
3733;SDS011;1882;52.256;8.874;2022-10-31T15:15:24;18.07;;;10.33;;
3733;SDS011;1882;52.256;8.874;2022-10-31T15:20:20;22.83;;;10.13;;
3733;SDS011;1882;52.256;8.874;2022-10-31T15:22:49;27.07;;;10.30;;
3733;SDS011;1882;52.256;8.874;2022-10-31T15:25:20;21.47;;;10.70;;
3733;SDS011;1882;52.256;8.874;2022-10-31T15:27:48;23.03;;;10.43;;
3733;SDS011;1882;52.256;8.874;2022-10-31T15:30:16;22.43;;;11.50;;
3733;SDS011;1882;52.256;8.874;2022-10-31T15:32:49;19.67;;;10.80;;
3733;SDS011;1882;52.256;8.874;2022-10-31T15:35:25;25.60;;;12.67;;
3733;SDS011;1882;52.256;8.874;2022-10-31T15:37:53;19.17;;;10.67;;
3733;SDS011;1882;52.256;8.874;2022-10-31T15:40:21;27.63;;;10.57;;
3733;SDS011;1882;52.256;8.874;2022-10-31T15:43:00;23.90;;;11.53;;
3733;SDS011;1882;52.256;8.874;2022-10-31T15:45:28;18.80;;;10.37;;
3733;SDS011;1882;52.256;8.874;2022-10-31T15:48:04;25.43;;;11.53;;
3733;SDS011;1882;52.256;8.874;2022-10-31T15:51:02;20.77;;;10.77;;
3733;SDS011;1882;52.256;8.874;2022-10-31T15:53:35;25.40;;;11.93;;
3733;SDS011;1882;52.256;8.874;2022-10-31T15:56:12;25.50;;;11.90;;
3733;SDS011;1882;52.256;8.874;2022-10-31T15:58:48;23.07;;;11.77;;
3733;SDS011;1882;52.256;8.874;2022-10-31T16:01:28;21.57;;;11.87;;
3733;SDS011;1882;52.256;8.874;2022-10-31T16:06:40;28.30;;;11.20;;
3733;SDS011;1882;52.256;8.874;2022-10-31T16:09:20;25.90;;;12.17;;
3733;SDS011;1882;52.256;8.874;2022-10-31T16:11:48;25.60;;;12.23;;
3733;SDS011;1882;52.256;8.874;2022-10-31T16:14:15;19.10;;;11.50;;
3733;SDS011;1882;52.256;8.874;2022-10-31T16:16:51;26.90;;;12.30;;
3733;SDS011;1882;52.256;8.874;2022-10-31T16:21:48;33.80;;;11.80;;
3733;SDS011;1882;52.256;8.874;2022-10-31T16:24:19;23.60;;;12.40;;
3733;SDS011;1882;52.256;8.874;2022-10-31T16:26:50;29.07;;;11.80;;
3733;SDS011;1882;52.256;8.874;2022-10-31T16:29:52;21.93;;;12.20;;
3733;SDS011;1882;52.256;8.874;2022-10-31T16:38:03;23.23;;;11.57;;
3733;SDS011;1882;52.256;8.874;2022-10-31T16:40:30;25.00;;;12.07;;
3733;SDS011;1882;52.256;8.874;2022-10-31T16:42:58;27.50;;;12.33;;
3733;SDS011;1882;52.256;8.874;2022-10-31T16:45:27;32.57;;;13.83;;
3733;SDS011;1882;52.256;8.874;2022-10-31T16:48:04;23.40;;;13.63;;
3733;SDS011;1882;52.256;8.874;2022-10-31T16:50:32;30.00;;;12.00;;
3733;SDS011;1882;52.256;8.874;2022-10-31T16:52:58;26.37;;;11.60;;
3733;SDS011;1882;52.256;8.874;2022-10-31T16:55:46;23.73;;;11.60;;
3733;SDS011;1882;52.256;8.874;2022-10-31T16:58:20;32.30;;;12.47;;
3733;SDS011;1882;52.256;8.874;2022-10-31T17:00:49;21.83;;;11.77;;
3733;SDS011;1882;52.256;8.874;2022-10-31T17:03:16;25.37;;;11.63;;
3733;SDS011;1882;52.256;8.874;2022-10-31T17:05:42;25.30;;;12.33;;
3733;SDS011;1882;52.256;8.874;2022-10-31T17:08:09;26.73;;;12.37;;
3733;SDS011;1882;52.256;8.874;2022-10-31T17:10:36;20.77;;;11.70;;
3733;SDS011;1882;52.256;8.874;2022-10-31T17:13:03;26.53;;;12.33;;
3733;SDS011;1882;52.256;8.874;2022-10-31T17:15:35;23.00;;;12.07;;
3733;SDS011;1882;52.256;8.874;2022-10-31T17:18:11;23.00;;;12.53;;
3733;SDS011;1882;52.256;8.874;2022-10-31T17:20:39;26.00;;;12.10;;
3733;SDS011;1882;52.256;8.874;2022-10-31T17:23:08;25.30;;;12.30;;
3733;SDS011;1882;52.256;8.874;2022-10-31T17:25:36;26.77;;;12.27;;
3733;SDS011;1882;52.256;8.874;2022-10-31T17:28:03;21.83;;;12.00;;
3733;SDS011;1882;52.256;8.874;2022-10-31T17:30:30;21.40;;;10.93;;
3733;SDS011;1882;52.256;8.874;2022-10-31T17:32:57;22.20;;;12.13;;
3733;SDS011;1882;52.256;8.874;2022-10-31T17:35:27;28.70;;;12.43;;
3733;SDS011;1882;52.256;8.874;2022-10-31T17:37:53;26.70;;;12.70;;
3733;SDS011;1882;52.256;8.874;2022-10-31T17:40:20;26.07;;;13.03;;
3733;SDS011;1882;52.256;8.874;2022-10-31T17:42:48;24.77;;;12.57;;
3733;SDS011;1882;52.256;8.874;2022-10-31T17:45:25;27.63;;;12.90;;
3733;SDS011;1882;52.256;8.874;2022-10-31T17:47:52;25.60;;;13.13;;
3733;SDS011;1882;52.256;8.874;2022-10-31T17:50:22;29.60;;;12.83;;
3733;SDS011;1882;52.256;8.874;2022-10-31T17:52:52;26.30;;;12.83;;
3733;SDS011;1882;52.256;8.874;2022-10-31T17:55:19;32.07;;;13.60;;
3733;SDS011;1882;52.256;8.874;2022-10-31T17:57:45;22.33;;;12.93;;
3733;SDS011;1882;52.256;8.874;2022-10-31T18:00:13;30.80;;;13.07;;
3733;SDS011;1882;52.256;8.874;2022-10-31T18:02:42;28.87;;;12.70;;
3733;SDS011;1882;52.256;8.874;2022-10-31T18:05:09;22.93;;;12.70;;
3733;SDS011;1882;52.256;8.874;2022-10-31T18:07:36;27.87;;;12.67;;
3733;SDS011;1882;52.256;8.874;2022-10-31T18:10:02;23.57;;;12.47;;
3733;SDS011;1882;52.256;8.874;2022-10-31T18:12:30;25.17;;;13.90;;
3733;SDS011;1882;52.256;8.874;2022-10-31T18:15:02;28.23;;;13.90;;
3733;SDS011;1882;52.256;8.874;2022-10-31T18:17:32;26.37;;;13.20;;